Time;durP1;ratioP1;P1;durP2;ratioP2;P2;SDS_P1;SDS_P2;PMS_P1;PMS_P2;Temp;Humidity;BMP_temperature;BMP_pressure;BME280_temperature;BME280_humidity;BME280_pressure;Samples;Min_cycle;Max_cycle;Signal;HPM_P1;HPM_P2
2023/04/28 00:00:49;;;;;;;2.63;2.10;;;18.00;99.90;;;;;;5113836;28;20038;-79
2023/04/28 00:03:15;;;;;;;4.10;2.00;;;18.00;99.90;;;;;;5114039;28;20074;-81
2023/04/28 00:05:41;;;;;;;2.33;2.00;;;17.90;99.90;;;;;;5113701;28;20829;-80
2023/04/28 00:08:07;;;;;;;4.07;2.10;;;17.90;99.90;;;;;;5113997;28;20024;-81
2023/04/28 00:10:33;;;;;;;3.20;2.00;;;17.90;99.90;;;;;;5114423;28;20027;-80
2023/04/28 00:12:59;;;;;;;2.50;1.90;;;17.80;99.90;;;;;;5113566;28;20049;-80
2023/04/28 00:15:26;;;;;;;2.20;2.00;;;17.80;99.90;;;;;;5095829;28;20539;-81
2023/04/28 00:17:53;;;;;;;4.32;2.00;;;17.80;99.90;;;;;;5114252;28;20020;-80
2023/04/28 00:20:18;;;;;;;2.42;2.00;;;17.70;99.90;;;;;;5113982;28;20035;-80
2023/04/28 00:22:44;;;;;;;3.80;2.10;;;17.70;99.90;;;;;;5113897;28;20529;-79
2023/04/28 00:25:10;;;;;;;2.25;2.00;;;17.60;99.90;;;;;;5113800;28;20066;-80
2023/04/28 00:27:35;;;;;;;3.80;1.80;;;17.60;99.90;;;;;;5113538;28;20024;-79
2023/04/28 00:30:02;;;;;;;2.10;1.90;;;17.60;99.90;;;;;;5113827;28;20024;-80
2023/04/28 00:32:28;;;;;;;3.70;2.40;;;17.60;99.90;;;;;;5113095;28;20093;-81
2023/04/28 00:34:53;;;;;;;2.38;2.10;;;17.50;99.90;;;;;;5113333;28;20430;-80
2023/04/28 00:37:19;;;;;;;2.47;2.20;;;17.50;99.90;;;;;;5113749;28;20076;-79
2023/04/28 00:39:48;;;;;;;3.58;2.35;;;17.40;99.90;;;;;;5113877;28;20019;-79
2023/04/28 00:42:14;;;;;;;3.03;2.30;;;17.30;99.90;;;;;;5113350;28;20438;-80
2023/04/28 00:44:40;;;;;;;4.78;2.20;;;17.30;99.90;;;;;;5113599;28;20500;-80
2023/04/28 00:47:08;;;;;;;2.88;2.17;;;17.30;99.90;;;;;;5113425;28;20251;-79
2023/04/28 00:49:35;;;;;;;4.03;2.38;;;17.30;99.90;;;;;;5113134;28;20020;-80
2023/04/28 00:52:08;;;;;;;3.92;2.10;;;17.20;99.90;;;;;;5113198;28;20022;-80
2023/04/28 00:54:34;;;;;;;3.83;2.40;;;17.20;99.90;;;;;;5112995;28;20034;-80
2023/04/28 00:57:04;;;;;;;2.30;2.10;;;17.20;99.90;;;;;;5113057;28;20050;-80
2023/04/28 00:59:30;;;;;;;3.63;2.45;;;17.20;99.90;;;;;;5113196;28;20038;-79
2023/04/28 01:01:56;;;;;;;3.47;2.20;;;17.00;99.90;;;;;;5112982;28;20072;-80
2023/04/28 01:04:22;;;;;;;3.17;2.22;;;17.10;99.90;;;;;;5113071;28;20043;-79
2023/04/28 01:06:49;;;;;;;3.45;2.40;;;17.00;99.90;;;;;;5113027;28;20050;-79
2023/04/28 01:09:16;;;;;;;3.22;2.38;;;16.90;99.90;;;;;;5113166;28;20031;-79
2023/04/28 01:11:41;;;;;;;3.40;2.85;;;16.90;99.90;;;;;;5112408;28;20090;-80
2023/04/28 01:14:07;;;;;;;4.25;2.20;;;16.90;99.90;;;;;;5113064;28;20508;-80
2023/04/28 01:16:34;;;;;;;4.72;2.13;;;16.90;99.90;;;;;;5112338;28;20162;-78
2023/04/28 01:19:00;;;;;;;2.60;2.40;;;16.90;99.90;;;;;;5112861;28;20054;-79
2023/04/28 01:21:35;;;;;;;3.28;2.22;;;16.80;99.90;;;;;;5113297;28;20057;-79
2023/04/28 01:24:01;;;;;;;2.30;2.10;;;16.80;99.90;;;;;;5112602;28;20019;-80
2023/04/28 01:26:26;;;;;;;2.42;2.22;;;16.80;99.90;;;;;;5112554;28;20039;-79
2023/04/28 01:28:52;;;;;;;2.33;2.10;;;16.80;99.90;;;;;;5112550;28;20145;-79
2023/04/28 01:31:19;;;;;;;2.45;2.20;;;16.70;99.90;;;;;;5112238;28;20031;-80
2023/04/28 01:33:44;;;;;;;2.63;2.20;;;16.70;99.90;;;;;;5112564;28;20035;-79
2023/04/28 01:36:10;;;;;;;2.30;2.10;;;16.70;99.90;;;;;;5112671;28;20027;-80
2023/04/28 01:38:36;;;;;;;4.13;2.47;;;16.60;99.90;;;;;;5112572;28;20115;-79
2023/04/28 01:41:02;;;;;;;3.30;2.22;;;16.60;99.90;;;;;;5112570;28;20027;-79
2023/04/28 01:43:28;;;;;;;2.97;2.20;;;16.60;99.90;;;;;;5112084;27;20436;-80
2023/04/28 01:45:54;;;;;;;3.50;2.15;;;16.60;99.90;;;;;;5111809;28;20034;-80
2023/04/28 01:48:20;;;;;;;5.30;2.30;;;16.50;99.90;;;;;;5112590;28;20023;-80
2023/04/28 01:50:45;;;;;;;2.30;2.10;;;16.50;99.90;;;;;;5112176;28;20056;-79
2023/04/28 01:53:13;;;;;;;3.25;2.38;;;16.50;99.90;;;;;;5112132;28;20122;-79
2023/04/28 01:55:38;;;;;;;2.40;2.20;;;16.40;99.90;;;;;;5112470;28;20015;-79
2023/04/28 01:58:04;;;;;;;2.47;2.10;;;16.30;99.90;;;;;;5111788;28;20030;-79
2023/04/28 02:00:29;;;;;;;2.47;2.03;;;16.30;99.90;;;;;;5111617;28;20089;-79
2023/04/28 02:02:55;;;;;;;2.55;2.30;;;16.30;99.90;;;;;;5112227;28;20031;-79
2023/04/28 02:05:21;;;;;;;5.53;2.50;;;16.30;99.90;;;;;;5112731;28;20038;-79
2023/04/28 02:07:46;;;;;;;2.50;2.30;;;16.20;99.90;;;;;;5111859;28;20020;-80
2023/04/28 02:10:12;;;;;;;4.43;2.30;;;16.20;99.90;;;;;;5112496;28;20031;-79
2023/04/28 02:12:38;;;;;;;4.90;2.50;;;16.30;99.90;;;;;;5111937;28;20097;-79
2023/04/28 02:15:04;;;;;;;3.38;2.30;;;16.20;99.90;;;;;;5111515;28;20034;-78
2023/04/28 02:17:30;;;;;;;3.75;2.20;;;16.10;99.90;;;;;;5111996;28;20044;-78
2023/04/28 02:19:56;;;;;;;2.85;2.40;;;16.10;99.90;;;;;;5111754;28;20058;-79
2023/04/28 02:22:22;;;;;;;4.20;2.10;;;16.10;99.90;;;;;;5111704;28;20448;-78
2023/04/28 02:24:48;;;;;;;3.65;2.40;;;16.00;99.90;;;;;;5112019;28;20030;-78
2023/04/28 02:27:14;;;;;;;2.60;2.20;;;15.90;99.90;;;;;;5093671;28;20020;-79
2023/04/28 02:29:39;;;;;;;4.20;2.38;;;16.00;99.90;;;;;;5111279;28;20032;-79
2023/04/28 02:32:05;;;;;;;2.50;2.30;;;16.00;99.90;;;;;;5111930;28;20047;-79
2023/04/28 02:34:31;;;;;;;4.75;2.30;;;16.00;99.90;;;;;;5111812;28;20039;-79
2023/04/28 02:36:57;;;;;;;4.47;2.30;;;15.90;99.90;;;;;;5111501;28;20024;-79
2023/04/28 02:39:25;;;;;;;2.88;2.20;;;16.00;99.90;;;;;;5112098;28;20028;-79
2023/04/28 02:41:55;;;;;;;3.03;2.10;;;16.00;99.90;;;;;;5111451;28;20404;-79
2023/04/28 02:44:21;;;;;;;4.78;2.40;;;15.90;99.90;;;;;;5111804;28;20429;-80
2023/04/28 02:46:47;;;;;;;3.38;2.53;;;15.90;99.90;;;;;;5111651;28;20196;-79
2023/04/28 02:49:13;;;;;;;3.10;2.28;;;15.90;99.90;;;;;;5111751;28;20012;-79
2023/04/28 02:51:39;;;;;;;3.53;2.40;;;15.90;99.90;;;;;;5112617;28;20507;-80
2023/04/28 02:54:05;;;;;;;4.10;2.40;;;15.90;99.90;;;;;;5111894;28;20172;-79
2023/04/28 02:56:30;;;;;;;6.38;2.58;;;15.90;99.90;;;;;;5111512;28;20638;-79
2023/04/28 02:58:56;;;;;;;10.23;2.72;;;15.90;99.90;;;;;;5115365;28;20032;-80
2023/04/28 03:01:22;;;;;;;6.20;2.40;;;16.00;99.90;;;;;;5115278;28;20057;-79
2023/04/28 03:03:48;;;;;;;2.97;2.28;;;16.00;99.90;;;;;;5115726;28;20110;-79
2023/04/28 03:06:13;;;;;;;2.72;2.45;;;16.00;99.90;;;;;;5115292;28;20504;-79
2023/04/28 03:08:39;;;;;;;3.33;2.88;;;15.90;99.90;;;;;;5116023;28;20031;-79
2023/04/28 03:11:05;;;;;;;5.15;3.00;;;15.90;99.90;;;;;;5114755;28;20031;-78
2023/04/28 03:13:31;;;;;;;5.88;4.18;;;15.90;99.90;;;;;;5114720;28;20503;-78
2023/04/28 03:15:56;;;;;;;5.88;5.13;;;15.90;99.90;;;;;;5115354;28;20020;-79
2023/04/28 03:18:22;;;;;;;6.95;6.28;;;15.90;99.90;;;;;;5115091;28;20502;-79
2023/04/28 03:20:48;;;;;;;7.70;7.10;;;16.00;99.90;;;;;;5115030;28;20068;-79
2023/04/28 03:23:14;;;;;;;7.30;6.60;;;15.90;99.90;;;;;;5114725;28;20540;-79
2023/04/28 03:25:40;;;;;;;7.40;6.80;;;16.00;99.90;;;;;;5115125;28;20031;-78
2023/04/28 03:28:06;;;;;;;6.97;6.38;;;15.90;99.90;;;;;;5115676;28;20103;-79
2023/04/28 03:30:32;;;;;;;6.85;5.85;;;15.90;99.90;;;;;;5114851;28;20035;-78
2023/04/28 03:32:57;;;;;;;6.43;5.82;;;15.90;99.90;;;;;;5115437;28;20020;-79
2023/04/28 03:35:23;;;;;;;6.80;5.38;;;15.80;99.90;;;;;;5115370;28;20072;-79
2023/04/28 03:37:49;;;;;;;5.53;4.82;;;15.80;99.90;;;;;;5115264;28;20023;-79
2023/04/28 03:40:15;;;;;;;5.10;4.70;;;15.80;99.90;;;;;;5114398;28;20055;-79
2023/04/28 03:42:41;;;;;;;4.80;4.40;;;15.80;99.90;;;;;;5114319;28;20045;-79
2023/04/28 03:45:07;;;;;;;5.47;4.90;;;15.80;99.90;;;;;;5114300;28;20034;-79
2023/04/28 03:47:33;;;;;;;5.68;5.18;;;15.80;99.90;;;;;;5114415;28;20023;-77
2023/04/28 03:49:59;;;;;;;6.40;5.85;;;15.80;99.90;;;;;;5115125;28;20031;-78
2023/04/28 03:52:25;;;;;;;7.20;6.50;;;15.70;99.90;;;;;;5115065;28;20036;-79
2023/04/28 03:54:50;;;;;;;7.75;7.13;;;15.70;99.90;;;;;;5114600;28;20031;-79
2023/04/28 03:57:16;;;;;;;7.60;7.00;;;15.70;99.90;;;;;;5114041;28;20484;-79
2023/04/28 03:59:42;;;;;;;8.52;7.65;;;15.60;99.90;;;;;;5114152;28;20032;-79
2023/04/28 04:02:07;;;;;;;8.10;7.35;;;15.60;99.90;;;;;;5114080;28;20506;-78
2023/04/28 04:04:33;;;;;;;8.90;8.10;;;15.60;99.90;;;;;;5095866;28;20031;-79
2023/04/28 04:06:59;;;;;;;9.07;8.05;;;15.60;99.90;;;;;;5114241;28;20043;-78
2023/04/28 04:09:25;;;;;;;8.90;8.10;;;15.70;99.90;;;;;;5114091;28;20065;-79
2023/04/28 04:11:51;;;;;;;8.35;7.50;;;15.70;99.90;;;;;;5114719;28;20130;-78
2023/04/28 04:14:17;;;;;;;8.45;7.68;;;15.70;99.90;;;;;;5114309;28;20121;-78
2023/04/28 04:16:42;;;;;;;10.20;7.60;;;15.70;99.90;;;;;;5113866;28;20072;-79
2023/04/28 04:19:08;;;;;;;6.40;5.90;;;15.70;99.90;;;;;;5114365;28;20511;-79
2023/04/28 04:21:34;;;;;;;6.28;5.68;;;15.80;99.90;;;;;;5114107;28;20027;-78
2023/04/28 04:24:00;;;;;;;5.72;5.22;;;15.80;99.90;;;;;;5114207;27;20024;-79
2023/04/28 04:26:25;;;;;;;5.38;4.88;;;15.80;99.90;;;;;;5113603;28;20028;-79
2023/04/28 04:28:51;;;;;;;7.57;4.63;;;15.80;99.90;;;;;;5095860;28;20023;-79
2023/04/28 04:31:18;;;;;;;5.40;4.35;;;15.70;99.90;;;;;;5114180;28;20024;-79
2023/04/28 04:33:44;;;;;;;5.72;4.55;;;15.70;99.90;;;;;;5113855;28;20118;-79
2023/04/28 04:36:10;;;;;;;5.30;4.55;;;15.80;99.90;;;;;;5113339;28;20219;-79
2023/04/28 04:38:36;;;;;;;4.88;4.40;;;15.80;99.90;;;;;;5113428;28;20024;-79
2023/04/28 04:41:01;;;;;;;5.25;4.40;;;15.80;99.90;;;;;;5113557;28;20020;-79
2023/04/28 04:43:27;;;;;;;4.88;4.28;;;15.80;99.90;;;;;;5113865;28;20020;-79
2023/04/28 04:45:53;;;;;;;5.93;4.25;;;15.80;99.90;;;;;;5113244;28;20024;-80
2023/04/28 04:48:19;;;;;;;5.18;4.68;;;15.70;99.90;;;;;;5113455;28;20028;-78
2023/04/28 04:50:45;;;;;;;5.82;4.70;;;15.70;99.90;;;;;;5113288;28;20073;-79
2023/04/28 04:53:11;;;;;;;7.35;5.18;;;15.70;99.90;;;;;;5113729;28;20036;-79
2023/04/28 04:55:37;;;;;;;9.13;5.45;;;15.70;99.90;;;;;;5113087;28;20034;-79
2023/04/28 04:58:03;;;;;;;7.57;5.43;;;15.70;99.90;;;;;;5113551;28;20459;-80
2023/04/28 05:00:29;;;;;;;6.50;5.25;;;15.70;99.90;;;;;;5113092;28;20030;-79
2023/04/28 05:02:54;;;;;;;6.72;6.00;;;15.70;99.90;;;;;;5113293;28;20072;-80
2023/04/28 05:05:20;;;;;;;6.45;5.90;;;15.70;99.90;;;;;;5112997;28;20034;-79
2023/04/28 05:07:46;;;;;;;6.80;6.30;;;15.70;99.90;;;;;;5112777;28;20502;-79
2023/04/28 05:10:12;;;;;;;7.00;5.70;;;15.70;99.90;;;;;;5094584;28;20554;-79
2023/04/28 05:12:37;;;;;;;7.38;6.65;;;15.70;99.90;;;;;;5112723;28;20092;-78
2023/04/28 05:15:06;;;;;;;7.50;6.28;;;15.70;99.90;;;;;;5112861;28;20123;-78
2023/04/28 05:17:33;;;;;;;7.10;6.40;;;15.70;99.90;;;;;;5113547;28;20027;-78
2023/04/28 05:19:59;;;;;;;7.30;6.63;;;15.70;99.90;;;;;;5111720;28;20031;-78
2023/04/28 05:22:25;;;;;;;9.50;7.10;;;15.70;99.90;;;;;;5112623;28;20024;-78
2023/04/28 05:24:51;;;;;;;7.63;6.85;;;15.70;99.90;;;;;;5112780;28;20415;-78
2023/04/28 05:27:17;;;;;;;8.38;7.45;;;15.70;99.90;;;;;;5112239;28;20033;-78
2023/04/28 05:29:43;;;;;;;7.82;7.15;;;15.70;99.90;;;;;;5112362;28;20039;-79
2023/04/28 05:32:09;;;;;;;7.75;7.10;;;15.70;99.90;;;;;;5111952;28;20403;-78
2023/04/28 05:34:34;;;;;;;7.30;6.60;;;15.80;99.90;;;;;;5112216;28;20020;-78
2023/04/28 05:37:00;;;;;;;7.68;6.38;;;15.80;99.90;;;;;;5111824;28;20548;-78
2023/04/28 05:39:26;;;;;;;7.45;6.80;;;15.80;99.90;;;;;;5112693;28;20034;-79
2023/04/28 05:41:51;;;;;;;6.57;6.07;;;15.80;99.90;;;;;;5112891;28;20030;-79
2023/04/28 05:44:17;;;;;;;6.38;5.88;;;15.80;99.90;;;;;;5113114;28;20365;-79
2023/04/28 05:46:43;;;;;;;7.07;5.88;;;15.80;99.90;;;;;;5112139;28;20476;-78
2023/04/28 05:49:09;;;;;;;6.20;5.60;;;15.80;99.90;;;;;;5112307;28;20020;-79
2023/04/28 05:51:36;;;;;;;5.40;4.90;;;15.90;99.90;;;;;;5112100;28;20472;-79
2023/04/28 05:54:02;;;;;;;7.25;4.80;;;15.90;99.90;;;;;;5112426;28;20445;-77
2023/04/28 05:56:28;;;;;;;4.97;4.57;;;15.90;99.90;;;;;;5112380;28;20073;-78
2023/04/28 05:58:53;;;;;;;5.05;4.30;;;15.90;99.90;;;;;;5111903;28;20032;-78
2023/04/28 06:01:19;;;;;;;5.57;4.25;;;15.90;99.90;;;;;;5111979;28;20016;-78
2023/04/28 06:03:45;;;;;;;4.78;3.97;;;15.90;99.90;;;;;;5112838;28;20119;-78
2023/04/28 06:06:11;;;;;;;3.97;3.58;;;15.90;99.90;;;;;;5111664;28;20024;-78
2023/04/28 06:08:37;;;;;;;4.70;3.67;;;15.90;99.90;;;;;;5112035;28;20106;-79
2023/04/28 06:11:03;;;;;;;4.10;3.60;;;16.00;99.90;;;;;;5111529;28;20023;-79
2023/04/28 06:13:29;;;;;;;4.80;3.40;;;16.00;99.90;;;;;;5112269;28;20046;-79
2023/04/28 06:15:55;;;;;;;6.25;3.92;;;16.00;99.90;;;;;;5112056;28;20030;-79
2023/04/28 06:18:22;;;;;;;3.72;3.25;;;16.10;99.90;;;;;;5111722;28;20024;-78
2023/04/28 06:20:48;;;;;;;4.93;3.47;;;16.10;99.90;;;;;;5112009;28;20556;-78
2023/04/28 06:23:13;;;;;;;5.07;3.40;;;16.20;99.90;;;;;;5111935;28;20133;-78
2023/04/28 06:25:39;;;;;;;5.00;4.05;;;16.20;99.90;;;;;;5112156;28;20035;-78
2023/04/28 06:28:06;;;;;;;4.07;3.53;;;16.20;99.90;;;;;;5094165;28;20484;-79
2023/04/28 06:30:31;;;;;;;4.65;3.67;;;16.30;99.90;;;;;;5111550;28;20030;-79
2023/04/28 06:32:57;;;;;;;4.05;3.70;;;16.30;99.90;;;;;;5116341;28;20036;-80
2023/04/28 06:35:23;;;;;;;3.90;3.50;;;16.20;99.90;;;;;;5115633;28;20153;-79
2023/04/28 06:37:48;;;;;;;5.07;3.30;;;16.30;99.90;;;;;;5115559;28;20480;-80
2023/04/28 06:40:14;;;;;;;4.25;3.72;;;16.30;99.90;;;;;;5115215;28;20182;-80
2023/04/28 06:42:40;;;;;;;4.25;3.55;;;16.30;99.90;;;;;;5114491;28;20028;-81
2023/04/28 06:45:06;;;;;;;5.88;3.63;;;16.40;99.90;;;;;;5115889;28;20031;-82
2023/04/28 06:47:32;;;;;;;4.30;3.50;;;16.40;99.90;;;;;;5098123;28;20015;-80
2023/04/28 06:49:58;;;;;;;5.07;3.80;;;16.50;99.90;;;;;;5118253;28;20464;-80
2023/04/28 06:52:24;;;;;;;4.40;3.45;;;16.50;99.90;;;;;;5118245;28;20019;-80
2023/04/28 06:54:50;;;;;;;3.85;3.55;;;16.60;99.90;;;;;;5097434;28;20037;-81
2023/04/28 06:57:16;;;;;;;4.07;3.67;;;16.60;99.90;;;;;;5116222;28;20039;-77
2023/04/28 06:59:43;;;;;;;6.53;4.20;;;16.60;99.90;;;;;;5115453;28;20023;-78
2023/04/28 07:02:09;;;;;;;4.15;3.80;;;16.60;99.90;;;;;;5115055;28;20388;-77
2023/04/28 07:04:35;;;;;;;4.38;3.75;;;16.70;99.90;;;;;;5115109;28;20031;-76
2023/04/28 07:07:01;;;;;;;4.47;4.07;;;16.70;99.90;;;;;;5115836;28;20039;-77
2023/04/28 07:09:27;;;;;;;4.10;3.70;;;16.80;99.90;;;;;;5114919;28;20476;-77
2023/04/28 07:11:53;;;;;;;6.10;4.10;;;16.90;99.90;;;;;;5115237;28;20054;-77
2023/04/28 07:14:19;;;;;;;4.55;3.88;;;16.90;99.90;;;;;;5115095;28;20032;-77
2023/04/28 07:16:44;;;;;;;6.72;3.60;;;17.00;99.90;;;;;;5115163;28;20431;-77
2023/04/28 07:19:10;;;;;;;4.28;3.88;;;17.00;99.90;;;;;;5115140;28;20104;-77
2023/04/28 07:21:36;;;;;;;4.32;3.92;;;17.10;99.90;;;;;;5115267;28;20031;-77
2023/04/28 07:24:01;;;;;;;4.78;4.30;;;17.10;99.90;;;;;;5114969;28;20028;-77
2023/04/28 07:26:27;;;;;;;4.40;4.10;;;17.10;99.90;;;;;;5114982;28;20023;-75
2023/04/28 07:28:53;;;;;;;4.72;4.32;;;17.20;99.90;;;;;;5096798;28;20042;-77
2023/04/28 07:31:19;;;;;;;4.90;4.45;;;17.20;99.90;;;;;;5115475;28;20038;-77
2023/04/28 07:33:45;;;;;;;5.95;4.90;;;17.20;99.90;;;;;;5114731;28;20047;-76
2023/04/28 07:36:10;;;;;;;5.50;5.00;;;17.20;99.90;;;;;;5114459;28;20096;-81
2023/04/28 07:38:36;;;;;;;6.03;4.93;;;17.30;99.90;;;;;;5114663;28;20066;-77
2023/04/28 07:41:02;;;;;;;5.40;4.90;;;17.40;99.90;;;;;;5097158;28;20047;-79
2023/04/28 07:43:29;;;;;;;6.85;4.95;;;17.50;99.90;;;;;;5114150;28;20063;-79
2023/04/28 07:45:54;;;;;;;6.63;4.40;;;17.60;99.90;;;;;;5114700;28;20039;-79
2023/04/28 07:48:20;;;;;;;7.97;4.75;;;17.70;99.90;;;;;;5114436;28;20377;-80
2023/04/28 07:50:46;;;;;;;6.18;4.25;;;17.70;99.90;;;;;;5114813;28;20027;-79
2023/04/28 07:53:12;;;;;;;7.15;4.95;;;17.80;99.90;;;;;;5114425;28;20057;-79
2023/04/28 07:55:40;;;;;;;5.07;4.10;;;17.90;99.90;;;;;;5114871;28;20024;-79
2023/04/28 07:58:06;;;;;;;6.05;4.05;;;18.00;99.90;;;;;;5114452;28;20131;-79
2023/04/28 08:00:32;;;;;;;6.80;4.28;;;18.00;99.90;;;;;;5096044;28;20114;-79
2023/04/28 08:02:58;;;;;;;7.68;4.20;;;18.00;99.90;;;;;;5114224;28;20043;-80
2023/04/28 08:05:24;;;;;;;4.93;4.18;;;18.20;99.90;;;;;;5114025;28;20102;-78
2023/04/28 08:07:50;;;;;;;6.85;4.30;;;18.20;99.90;;;;;;5114090;28;20024;-78
2023/04/28 08:10:16;;;;;;;10.65;4.03;;;18.20;99.90;;;;;;5114716;28;20035;-78
2023/04/28 08:12:44;;;;;;;6.57;5.43;;;18.30;99.90;;;;;;5113886;28;20474;-78
2023/04/28 08:15:10;;;;;;;7.78;5.03;;;18.40;99.90;;;;;;5113948;28;20164;-78
2023/04/28 08:17:36;;;;;;;6.68;5.88;;;18.30;99.90;;;;;;5113741;28;20024;-78
2023/04/28 08:20:02;;;;;;;7.18;5.60;;;18.30;99.90;;;;;;5114505;28;20039;-78
2023/04/28 08:22:28;;;;;;;7.57;5.30;;;18.40;99.90;;;;;;5114136;28;20030;-78
2023/04/28 08:24:54;;;;;;;6.57;5.35;;;18.40;99.90;;;;;;5113685;28;20027;-78
2023/04/28 08:27:19;;;;;;;6.65;4.68;;;18.60;99.90;;;;;;5113885;28;20514;-76
2023/04/28 08:29:45;;;;;;;7.50;4.97;;;18.60;99.90;;;;;;5113969;28;20305;-75
2023/04/28 08:32:11;;;;;;;7.63;5.22;;;18.70;99.90;;;;;;5113409;28;20031;-76
2023/04/28 08:34:36;;;;;;;10.40;5.03;;;18.80;99.90;;;;;;5114161;28;20396;-75
2023/04/28 08:37:03;;;;;;;8.45;5.80;;;18.80;99.90;;;;;;5113657;28;20031;-75
2023/04/28 08:39:30;;;;;;;9.77;5.35;;;18.90;99.90;;;;;;5113864;28;20016;-76
2023/04/28 08:41:56;;;;;;;8.15;5.55;;;18.80;99.90;;;;;;5095213;28;20023;-75
2023/04/28 08:44:22;;;;;;;10.27;6.20;;;18.90;99.90;;;;;;5113782;28;20027;-75
2023/04/28 08:46:49;;;;;;;6.10;5.13;;;18.80;99.90;;;;;;5113526;28;20369;-75
2023/04/28 08:49:17;;;;;;;6.32;5.72;;;18.70;99.90;;;;;;5114163;28;20430;-75
2023/04/28 08:51:50;;;;;;;9.10;5.95;;;18.80;99.90;;;;;;5113135;28;20031;-75
2023/04/28 08:54:17;;;;;;;7.97;5.40;;;18.90;99.90;;;;;;5112281;28;20031;-75
2023/04/28 08:56:44;;;;;;;10.25;5.78;;;19.00;99.90;;;;;;5113006;28;20453;-75
2023/04/28 08:59:11;;;;;;;6.45;4.90;;;19.10;99.90;;;;;;5113189;28;20031;-75
2023/04/28 09:01:37;;;;;;;9.70;5.00;;;19.30;99.90;;;;;;5112596;28;20019;-76
2023/04/28 09:04:03;;;;;;;5.95;5.03;;;19.40;99.90;;;;;;5128899;27;20024;-76
2023/04/28 09:06:36;;;;;;;7.10;4.30;;;19.40;99.90;;;;;;5112983;28;20030;-76
2023/04/28 09:09:25;;;;;;;6.80;4.63;;;19.50;99.90;;;;;;5112653;28;20112;-76
2023/04/28 09:11:51;;;;;;;4.30;3.90;;;19.60;99.90;;;;;;5113037;28;20397;-76
2023/04/28 09:14:16;;;;;;;7.47;4.32;;;19.60;99.90;;;;;;5094809;28;20042;-76
2023/04/28 09:16:43;;;;;;;8.50;5.18;;;19.70;99.90;;;;;;5112493;28;20055;-76
2023/04/28 09:19:08;;;;;;;7.80;5.47;;;19.70;99.90;;;;;;5113421;28;20031;-77
2023/04/28 09:21:49;;;;;;;8.15;5.75;;;19.90;99.90;;;;;;5112933;28;20024;-79
2023/04/28 09:24:31;;;;;;;6.22;5.53;;;20.00;99.90;;;;;;5113131;28;20031;-79
2023/04/28 09:27:02;;;;;;;9.52;5.55;;;20.20;99.90;;;;;;5112517;28;20015;-80
2023/04/28 09:29:28;;;;;;;7.93;5.50;;;20.30;99.90;;;;;;5112607;28;20027;-79
2023/04/28 09:32:10;;;;;;;6.38;5.70;;;20.30;99.90;;;;;;5112693;28;20385;-79
2023/04/28 09:34:50;;;;;;;9.32;5.50;;;20.50;99.90;;;;;;5113058;28;20169;-79
2023/04/28 09:37:21;;;;;;;6.03;4.63;;;20.70;99.90;;;;;;5112332;28;20098;-80
2023/04/28 09:39:49;;;;;;;5.32;4.47;;;20.80;99.90;;;;;;5112366;28;20023;-79
2023/04/28 09:42:38;;;;;;;7.57;5.03;;;20.80;99.90;;;;;;5112386;28;20027;-80
2023/04/28 09:45:05;;;;;;;7.40;4.70;;;20.90;99.90;;;;;;5112307;28;20024;-79
2023/04/28 09:47:33;;;;;;;10.55;7.55;;;20.90;99.90;;;;;;5112528;28;20430;-80
2023/04/28 09:50:04;;;;;;;10.63;7.45;;;20.90;99.90;;;;;;5112554;28;20157;-80
2023/04/28 09:52:32;;;;;;;12.38;6.88;;;21.10;99.90;;;;;;5112381;28;20039;-80
2023/04/28 09:55:01;;;;;;;6.72;5.57;;;21.10;99.90;;;;;;5112244;28;20027;-80
2023/04/28 09:57:32;;;;;;;6.10;5.50;;;21.20;99.90;;;;;;5112205;28;20412;-80
2023/04/28 09:59:59;;;;;;;6.72;5.70;;;21.30;99.90;;;;;;5112177;28;20016;-79
2023/04/28 10:02:25;;;;;;;9.70;6.00;;;21.30;99.90;;;;;;5112017;28;20054;-80
2023/04/28 10:04:51;;;;;;;8.98;6.45;;;21.40;99.90;;;;;;5112123;28;20034;-80
2023/04/28 10:07:19;;;;;;;7.13;5.47;;;21.50;99.90;;;;;;5111717;28;20111;-80
2023/04/28 10:09:52;;;;;;;6.30;5.30;;;21.70;99.90;;;;;;5111917;28;20035;-80
2023/04/28 10:12:20;;;;;;;6.65;4.70;;;21.80;99.90;;;;;;5112723;28;20050;-80
2023/04/28 10:14:49;;;;;;;8.98;5.20;;;21.90;99.90;;;;;;5112342;28;20035;-80
2023/04/28 10:17:15;;;;;;;7.72;5.18;;;21.70;99.90;;;;;;5111990;28;20016;-80
2023/04/28 10:19:43;;;;;;;7.55;5.40;;;21.70;99.90;;;;;;5111853;28;20092;-80
2023/04/28 10:22:31;;;;;;;7.68;5.45;;;21.70;99.90;;;;;;5111604;28;20019;-80
2023/04/28 10:25:12;;;;;;;8.38;5.13;;;21.80;99.90;;;;;;5112232;28;20023;-80
2023/04/28 10:27:43;;;;;;;7.35;5.10;;;22.00;99.90;;;;;;5111638;28;20027;-80
2023/04/28 10:30:22;;;;;;;7.25;5.13;;;22.10;99.90;;;;;;5112146;28;20024;-80
2023/04/28 10:33:10;;;;;;;5.22;4.72;;;22.20;99.90;;;;;;5111636;28;20042;-80
2023/04/28 10:35:43;;;;;;;7.40;4.78;;;22.20;99.90;;;;;;5111632;28;20057;-80
2023/04/28 10:38:17;;;;;;;7.93;4.57;;;22.40;99.90;;;;;;5112523;28;20024;-80
2023/04/28 10:40:46;;;;;;;5.43;4.53;;;22.40;99.90;;;;;;5112191;28;20043;-80
2023/04/28 10:43:32;;;;;;;5.60;5.00;;;22.50;99.90;;;;;;5112255;28;20051;-80
2023/04/28 10:46:02;;;;;;;5.93;3.97;;;22.60;99.90;;;;;;5093823;28;20118;-80
2023/04/28 10:48:28;;;;;;;5.57;4.10;;;22.60;99.90;;;;;;5093412;28;20024;-79
2023/04/28 10:51:03;;;;;;;6.25;4.40;;;22.60;99.90;;;;;;5111293;28;20038;-81
2023/04/28 10:53:44;;;;;;;4.90;4.30;;;22.60;99.90;;;;;;5111373;28;20035;-80
2023/04/28 10:56:18;;;;;;;6.80;4.30;;;22.70;99.90;;;;;;5111103;28;20494;-80
2023/04/28 10:58:48;;;;;;;6.40;4.38;;;22.90;99.90;;;;;;5111290;28;20475;-81
2023/04/28 11:01:33;;;;;;;5.35;3.95;;;23.10;99.90;;;;;;5112088;28;20019;-80
2023/04/28 11:04:10;;;;;;;6.68;4.40;;;23.20;99.90;;;;;;5112507;28;20031;-80
2023/04/28 11:06:38;;;;;;;5.05;4.47;;;23.20;99.90;;;;;;5112147;28;20430;-80
2023/04/28 11:09:18;;;;;;;5.78;5.25;;;23.10;99.90;;;;;;5111305;28;20507;-80
2023/04/28 11:11:59;;;;;;;6.90;5.82;;;23.20;99.90;;;;;;5111238;28;20054;-81
2023/04/28 11:14:24;;;;;;;5.90;4.30;;;23.30;99.90;;;;;;5111703;28;20091;-81
2023/04/28 11:16:58;;;;;;;3.88;3.30;;;23.40;99.90;;;;;;5111707;28;20043;-81
2023/04/28 11:19:26;;;;;;;6.53;3.22;;;23.50;99.90;;;;;;5114346;28;20020;-81
2023/04/28 11:21:54;;;;;;;4.15;3.70;;;23.40;99.90;;;;;;5115385;28;20654;-80
2023/04/28 11:24:21;;;;;;;5.10;3.40;;;23.30;99.90;;;;;;5115567;28;20023;-81
2023/04/28 11:26:47;;;;;;;4.90;3.28;;;23.20;99.90;;;;;;5114956;28;20024;-81
2023/04/28 11:29:14;;;;;;;6.75;3.60;;;23.20;99.90;;;;;;5115083;28;20020;-81
2023/04/28 11:31:47;;;;;;;4.88;3.60;;;23.30;99.90;;;;;;5114871;28;20488;-80
2023/04/28 11:34:19;;;;;;;4.75;3.33;;;23.30;99.90;;;;;;5115104;28;20043;-80
2023/04/28 11:36:44;;;;;;;5.20;3.50;;;23.30;99.90;;;;;;5114938;28;20024;-81
2023/04/28 11:39:12;;;;;;;4.50;3.50;;;23.40;99.90;;;;;;5114615;28;20028;-81
2023/04/28 11:41:40;;;;;;;5.20;3.70;;;23.40;99.90;;;;;;5114332;28;20028;-81
2023/04/28 11:44:17;;;;;;;3.80;3.38;;;23.40;99.90;;;;;;5114848;28;20036;-81
2023/04/28 11:46:53;;;;;;;5.20;3.08;;;23.50;99.90;;;;;;5115323;28;20028;-81
2023/04/28 11:49:20;;;;;;;4.63;3.08;;;23.60;99.90;;;;;;5114371;28;20028;-81
2023/04/28 11:51:48;;;;;;;4.32;2.80;;;23.70;99.90;;;;;;5114515;28;20023;-81
2023/04/28 11:54:18;;;;;;;6.60;3.00;;;23.80;99.90;;;;;;5113781;28;20039;-81
2023/04/28 11:56:44;;;;;;;3.97;3.00;;;23.80;99.90;;;;;;5114566;28;20067;-81
2023/04/28 11:59:11;;;;;;;4.72;2.78;;;23.80;99.90;;;;;;5114489;28;20027;-81
2023/04/28 12:01:50;;;;;;;4.15;3.20;;;23.80;99.90;;;;;;5114811;28;20034;-81
2023/04/28 12:04:35;;;;;;;4.20;2.72;;;23.90;99.90;;;;;;5114246;28;20106;-81
2023/04/28 12:07:06;;;;;;;4.72;2.85;;;24.00;99.90;;;;;;5114057;28;20032;-81
2023/04/28 12:09:36;;;;;;;4.85;3.10;;;24.00;99.90;;;;;;5113645;28;20039;-81
2023/04/28 12:12:10;;;;;;;7.88;4.13;;;23.90;99.90;;;;;;5114218;28;20047;-81
2023/04/28 12:15:00;;;;;;;9.30;4.25;;;23.70;99.90;;;;;;5095783;28;20381;-81
2023/04/28 12:17:28;;;;;;;8.38;4.03;;;23.60;99.90;;;;;;5114583;28;20115;-81
2023/04/28 12:19:55;;;;;;;6.85;3.58;;;23.80;99.90;;;;;;5113948;28;20019;-76
2023/04/28 12:22:21;;;;;;;7.82;3.72;;;23.80;99.90;;;;;;5095470;28;20437;-76
2023/04/28 12:25:06;;;;;;;5.25;3.45;;;23.70;99.90;;;;;;5113401;28;20012;-76
2023/04/28 12:27:33;;;;;;;7.05;3.42;;;23.80;99.90;;;;;;5113772;28;20038;-76
2023/04/28 12:29:58;;;;;;;8.60;3.47;;;23.90;99.90;;;;;;5113637;28;20067;-76
2023/04/28 12:32:44;;;;;;;5.38;3.20;;;23.90;99.90;;;;;;5113472;28;20471;-77
2023/04/28 12:35:10;;;;;;;6.47;3.28;;;23.80;99.90;;;;;;5113461;28;20031;-77
2023/04/28 12:37:37;;;;;;;7.40;3.30;;;23.90;99.90;;;;;;5113180;28;20072;-77
2023/04/28 12:40:04;;;;;;;6.63;3.47;;;24.00;99.90;;;;;;5113982;28;20066;-77
2023/04/28 12:42:30;;;;;;;7.63;3.30;;;24.00;99.90;;;;;;5113442;28;20016;-76
2023/04/28 12:44:55;;;;;;;6.85;3.63;;;24.10;99.90;;;;;;5113691;28;20024;-77
2023/04/28 12:47:21;;;;;;;10.23;3.47;;;24.00;99.90;;;;;;5113273;28;20480;-77